Time;durP1;ratioP1;P1;durP2;ratioP2;P2;SDS_P1;SDS_P2;PMS_P1;PMS_P2;Temp;Humidity;BMP_temperature;BMP_pressure;BME280_temperature;BME280_humidity;BME280_pressure;Samples;Min_cycle;Max_cycle;Signal;HPM_P1;HPM_P2
2022/08/06 00:02:26;;;;;;;5.60;2.05;;;29.20;51.70;;;;;;6245236;22;19996;-70
2022/08/06 00:04:52;;;;;;;7.07;2.15;;;29.20;51.70;;;;;;6244763;22;20065;-73
2022/08/06 00:07:18;;;;;;;3.85;1.80;;;29.20;51.90;;;;;;6245334;22;20023;-75
2022/08/06 00:09:44;;;;;;;3.10;2.20;;;29.30;51.70;;;;;;6245443;22;20019;-70
2022/08/06 00:12:10;;;;;;;8.15;1.85;;;29.30;51.50;;;;;;6245238;23;20000;-70
2022/08/06 00:14:36;;;;;;;7.38;1.83;;;29.20;51.40;;;;;;6245221;23;20004;-69
2022/08/06 00:17:03;;;;;;;4.57;1.80;;;29.20;51.50;;;;;;6245350;22;20066;-73
2022/08/06 00:19:28;;;;;;;4.85;2.00;;;29.20;51.60;;;;;;6245196;23;20416;-68
2022/08/06 00:21:55;;;;;;;5.60;1.80;;;29.20;51.50;;;;;;6245837;22;20132;-69
2022/08/06 00:24:21;;;;;;;6.63;2.05;;;29.20;51.50;;;;;;6245260;22;20004;-71
2022/08/06 00:26:47;;;;;;;7.03;2.28;;;29.20;51.60;;;;;;6245171;23;20449;-70
2022/08/06 00:29:13;;;;;;;7.80;2.30;;;29.20;51.30;;;;;;6245468;22;20000;-70
2022/08/06 00:31:39;;;;;;;3.15;1.95;;;29.20;51.00;;;;;;6247178;22;20067;-73
2022/08/06 00:34:05;;;;;;;5.05;2.10;;;29.20;51.00;;;;;;6247760;22;20012;-71
2022/08/06 00:36:33;;;;;;;5.28;1.98;;;29.10;51.00;;;;;;6247362;22;20015;-70
2022/08/06 00:39:01;;;;;;;5.80;1.90;;;29.10;51.00;;;;;;6247262;22;20031;-74
2022/08/06 00:41:28;;;;;;;8.05;2.17;;;29.00;51.50;;;;;;6247041;22;20091;-75
2022/08/06 00:43:55;;;;;;;4.88;2.13;;;28.90;51.70;;;;;;6246916;22;20061;-70
2022/08/06 00:46:23;;;;;;;9.43;2.10;;;28.90;52.40;;;;;;6247221;22;20351;-71
2022/08/06 00:48:48;;;;;;;2.50;1.77;;;28.80;51.70;;;;;;6247057;22;20416;-71
2022/08/06 00:51:14;;;;;;;8.45;2.30;;;28.70;52.00;;;;;;6247399;22;20000;-70
2022/08/06 00:53:41;;;;;;;8.10;2.03;;;28.70;52.10;;;;;;6247188;23;20046;-70
2022/08/06 00:56:06;;;;;;;6.90;1.92;;;28.70;52.10;;;;;;6247145;22;20457;-74
2022/08/06 00:58:32;;;;;;;8.15;1.92;;;28.60;52.10;;;;;;6244866;22;20000;-76
2022/08/06 01:00:58;;;;;;;5.18;1.98;;;28.60;52.10;;;;;;6243659;23;20015;-71
2022/08/06 01:03:24;;;;;;;8.05;2.10;;;28.60;52.50;;;;;;6244055;22;20496;-71
2022/08/06 01:05:49;;;;;;;5.47;2.20;;;28.50;52.30;;;;;;6246706;23;20330;-70
2022/08/06 01:08:16;;;;;;;4.80;1.90;;;28.50;52.30;;;;;;6247105;22;20007;-71
2022/08/06 01:10:42;;;;;;;5.38;2.25;;;28.60;52.40;;;;;;6246892;23;20005;-71
2022/08/06 01:13:08;;;;;;;3.15;1.90;;;28.60;52.20;;;;;;6246555;22;20008;-71
2022/08/06 01:15:36;;;;;;;3.65;1.85;;;28.60;51.90;;;;;;6246832;23;20004;-76
2022/08/06 01:18:12;;;;;;;7.40;2.15;;;28.60;51.70;;;;;;6247090;22;20298;-76
2022/08/06 01:21:00;;;;;;;8.27;2.25;;;28.60;51.60;;;;;;6246466;22;20006;-71
2022/08/06 01:23:44;;;;;;;16.65;2.65;;;28.60;51.50;;;;;;6247094;22;20016;-71
2022/08/06 01:26:19;;;;;;;12.73;2.33;;;28.60;51.40;;;;;;6246674;22;20434;-75
2022/08/06 01:29:09;;;;;;;8.55;2.25;;;28.60;51.60;;;;;;6246689;23;20016;-71
2022/08/06 01:31:44;;;;;;;13.23;2.90;;;28.60;51.90;;;;;;6246534;23;20004;-75
2022/08/06 01:34:16;;;;;;;9.32;2.58;;;28.60;51.80;;;;;;6246731;22;20031;-74
2022/08/06 01:37:09;;;;;;;13.82;2.20;;;28.50;51.80;;;;;;6246434;22;20012;-71
2022/08/06 01:39:38;;;;;;;5.20;1.98;;;28.50;51.80;;;;;;6246580;22;20067;-71
2022/08/06 01:42:06;;;;;;;8.88;2.20;;;28.50;51.90;;;;;;6246399;22;20020;-71
2022/08/06 01:44:36;;;;;;;6.82;2.08;;;28.50;51.90;;;;;;6246732;22;20008;-71
2022/08/06 01:47:07;;;;;;;4.38;2.10;;;28.40;51.90;;;;;;6247101;22;20008;-70
2022/08/06 01:49:36;;;;;;;9.88;2.28;;;28.40;52.00;;;;;;6246547;22;20000;-71
2022/08/06 01:52:03;;;;;;;6.13;1.95;;;28.30;52.30;;;;;;6244926;22;20465;-72
2022/08/06 01:54:31;;;;;;;6.93;2.10;;;28.30;52.40;;;;;;6243086;22;20069;-75
2022/08/06 01:57:00;;;;;;;7.30;2.00;;;28.30;52.50;;;;;;6243720;22;20346;-70
2022/08/06 01:59:37;;;;;;;5.63;2.22;;;28.30;52.60;;;;;;6246340;22;20004;-70
2022/08/06 02:02:07;;;;;;;4.38;2.03;;;28.30;52.70;;;;;;6246444;22;20126;-71
2022/08/06 02:04:37;;;;;;;10.57;3.17;;;28.30;52.80;;;;;;6246403;22;20059;-76
2022/08/06 02:07:07;;;;;;;6.18;2.00;;;28.20;53.00;;;;;;6246198;22;20000;-72
2022/08/06 02:09:35;;;;;;;16.83;2.30;;;28.20;53.00;;;;;;6246323;22;20481;-72
2022/08/06 02:12:03;;;;;;;9.13;2.05;;;28.20;53.00;;;;;;6246222;22;20419;-70
2022/08/06 02:14:32;;;;;;;9.43;2.67;;;28.10;52.90;;;;;;6246308;23;20059;-70
2022/08/06 02:17:02;;;;;;;5.13;2.08;;;28.10;53.00;;;;;;6246402;22;20000;-70
2022/08/06 02:19:29;;;;;;;5.15;2.05;;;28.10;53.20;;;;;;6246512;22;20043;-70
2022/08/06 02:21:57;;;;;;;3.80;1.90;;;28.10;53.50;;;;;;6246589;22;20000;-71
2022/08/06 02:24:26;;;;;;;4.40;2.22;;;28.10;53.50;;;;;;6246502;22;20019;-76
2022/08/06 02:26:53;;;;;;;5.72;2.20;;;28.10;53.60;;;;;;6246103;22;20067;-70
2022/08/06 02:29:21;;;;;;;4.22;2.08;;;28.00;53.50;;;;;;6246273;22;20050;-70
2022/08/06 02:31:47;;;;;;;2.83;1.85;;;28.10;53.50;;;;;;6246277;22;20470;-70
2022/08/06 02:34:13;;;;;;;5.10;1.90;;;28.00;53.40;;;;;;6246270;22;20057;-76
2022/08/06 02:36:52;;;;;;;4.40;2.00;;;28.00;53.20;;;;;;6246448;22;20091;-71
2022/08/06 02:39:25;;;;;;;5.78;1.92;;;28.00;53.20;;;;;;6246078;22;20007;-71
2022/08/06 02:42:08;;;;;;;2.72;1.95;;;27.90;53.40;;;;;;6245998;22;20007;-71
2022/08/06 02:44:49;;;;;;;7.32;2.28;;;27.90;53.80;;;;;;6246529;22;20016;-75
2022/08/06 02:47:22;;;;;;;9.25;1.90;;;27.90;53.90;;;;;;6246275;23;20007;-70
2022/08/06 02:49:52;;;;;;;8.75;1.70;;;27.80;53.70;;;;;;6245987;22;19996;-70
2022/08/06 02:52:28;;;;;;;6.15;1.83;;;27.70;54.00;;;;;;6246018;22;20011;-70
2022/08/06 02:55:00;;;;;;;9.68;2.08;;;27.70;53.80;;;;;;6245914;22;20434;-71
2022/08/06 02:57:38;;;;;;;2.33;1.60;;;27.70;53.80;;;;;;6246421;22;20000;-71
2022/08/06 03:00:08;;;;;;;4.70;1.80;;;27.70;53.90;;;;;;6246113;22;20371;-71
2022/08/06 03:02:37;;;;;;;6.95;1.75;;;27.70;54.10;;;;;;6245712;22;20091;-74
2022/08/06 03:05:10;;;;;;;2.70;1.75;;;27.70;54.10;;;;;;6245748;22;20016;-75
2022/08/06 03:07:39;;;;;;;2.42;1.80;;;27.70;54.10;;;;;;6245947;22;20000;-75
2022/08/06 03:10:06;;;;;;;3.72;1.80;;;27.60;54.20;;;;;;6245911;22;20457;-75
2022/08/06 03:12:35;;;;;;;2.58;1.80;;;27.60;54.20;;;;;;6245754;22;20007;-71
2022/08/06 03:15:02;;;;;;;4.75;2.65;;;27.50;54.40;;;;;;6245347;22;20004;-71
2022/08/06 03:17:29;;;;;;;7.45;2.05;;;27.50;54.60;;;;;;6246074;22;20307;-71
2022/08/06 03:19:57;;;;;;;3.45;2.33;;;27.40;54.70;;;;;;6245567;22;20446;-71
2022/08/06 03:22:24;;;;;;;5.30;2.10;;;27.40;55.00;;;;;;6245912;22;20118;-71
2022/08/06 03:24:51;;;;;;;7.95;2.22;;;27.30;55.20;;;;;;6245553;22;20008;-70
2022/08/06 03:27:18;;;;;;;5.88;2.30;;;27.40;55.10;;;;;;6245931;22;20024;-70
2022/08/06 03:29:44;;;;;;;2.33;2.03;;;27.40;55.00;;;;;;6246253;22;20016;-70
2022/08/06 03:32:12;;;;;;;4.97;1.95;;;27.30;55.10;;;;;;6245723;23;20378;-71
2022/08/06 03:34:39;;;;;;;6.95;2.10;;;27.40;55.20;;;;;;6245751;22;20027;-70
2022/08/06 03:37:06;;;;;;;9.38;2.15;;;27.40;55.10;;;;;;6245602;22;20024;-74
2022/08/06 03:39:34;;;;;;;2.40;2.03;;;27.30;55.40;;;;;;6245924;22;20007;-74
2022/08/06 03:41:59;;;;;;;4.68;2.22;;;27.30;55.20;;;;;;6245832;22;20015;-76
2022/08/06 03:44:25;;;;;;;3.40;1.92;;;27.30;55.30;;;;;;6245701;22;20304;-71
2022/08/06 03:46:52;;;;;;;5.22;2.00;;;27.20;55.60;;;;;;6245598;22;20137;-70
2022/08/06 03:49:48;;;;;;;17.52;3.03;;;27.30;55.80;;;;;;6245519;22;19996;-75
2022/08/06 03:52:19;;;;;;;14.93;3.10;;;27.30;55.80;;;;;;6244568;23;20012;-75
2022/08/06 03:54:48;;;;;;;;;;;27.20;55.60;;;;;;6246096;22;20316;-73
2022/08/06 03:57:18;;;;;;;14.48;2.28;;;27.20;55.50;;;;;;6245420;22;19899;-71
2022/08/06 03:59:46;;;;;;;14.98;3.33;;;27.20;55.90;;;;;;6245798;22;20378;-75
2022/08/06 04:02:14;;;;;;;11.43;2.55;;;27.20;55.70;;;;;;6245376;22;20078;-70
2022/08/06 04:04:41;;;;;;;8.00;2.53;;;27.20;55.70;;;;;;6246014;22;20087;-76
2022/08/06 04:07:06;;;;;;;7.65;2.30;;;27.10;56.20;;;;;;6248965;22;20079;-70
2022/08/06 04:09:33;;;;;;;8.20;2.50;;;27.10;56.50;;;;;;6249022;22;20024;-68
2022/08/06 04:12:00;;;;;;;7.65;2.40;;;27.10;56.30;;;;;;6248938;22;20391;-68
2022/08/06 04:14:26;;;;;;;7.03;2.88;;;27.10;56.20;;;;;;6248534;22;20024;-67
2022/08/06 04:16:53;;;;;;;9.30;2.67;;;27.10;56.30;;;;;;6248798;22;20001;-68
2022/08/06 04:19:19;;;;;;;6.88;2.58;;;27.20;56.50;;;;;;6249270;22;20407;-68
2022/08/06 04:21:46;;;;;;;6.93;2.40;;;27.10;56.30;;;;;;6248819;22;20012;-71
2022/08/06 04:24:12;;;;;;;8.52;2.85;;;27.10;56.50;;;;;;6249125;22;20050;-68
2022/08/06 04:26:39;;;;;;;8.00;2.47;;;27.10;56.60;;;;;;6248860;22;20058;-68
2022/08/06 04:29:08;;;;;;;9.18;2.55;;;27.10;56.60;;;;;;6248599;22;20027;-68
2022/08/06 04:31:35;;;;;;;13.77;2.35;;;27.10;56.90;;;;;;6249365;22;20015;-67
2022/08/06 04:34:02;;;;;;;10.90;2.30;;;27.10;56.80;;;;;;6249040;22;20426;-67
2022/08/06 04:36:28;;;;;;;7.47;2.25;;;27.10;56.80;;;;;;6248735;22;20418;-68
2022/08/06 04:38:54;;;;;;;3.47;2.20;;;27.10;56.80;;;;;;6248601;22;20054;-69
2022/08/06 04:41:21;;;;;;;9.75;2.30;;;27.10;56.80;;;;;;6248986;22;20043;-69
2022/08/06 04:43:48;;;;;;;10.98;2.42;;;27.00;56.70;;;;;;6249214;22;20386;-68
2022/08/06 04:46:14;;;;;;;9.23;2.30;;;27.00;56.90;;;;;;6248962;22;20008;-68
2022/08/06 04:48:40;;;;;;;4.00;2.00;;;27.00;57.00;;;;;;6248676;22;20419;-68
2022/08/06 04:51:06;;;;;;;4.03;2.20;;;27.00;57.10;;;;;;6248265;22;20004;-75
2022/08/06 04:53:40;;;;;;;6.25;2.30;;;27.00;57.70;;;;;;6248772;22;20008;-74
2022/08/06 04:56:07;;;;;;;4.10;2.33;;;27.00;57.60;;;;;;6248514;22;20011;-68
2022/08/06 04:58:34;;;;;;;4.30;2.20;;;27.00;57.90;;;;;;6248792;22;20032;-69
2022/08/06 05:01:00;;;;;;;12.40;2.67;;;27.00;57.60;;;;;;6248829;22;20322;-69
2022/08/06 05:03:27;;;;;;;9.13;2.40;;;27.00;57.80;;;;;;6248427;22;20061;-70
2022/08/06 05:06:14;;;;;;;10.45;2.30;;;27.00;57.70;;;;;;6248532;22;20499;-74
2022/08/06 05:08:42;;;;;;;19.73;2.95;;;27.00;57.60;;;;;;6248250;22;20055;-67
2022/08/06 05:11:16;;;;;;;12.63;2.80;;;27.00;57.70;;;;;;6248828;22;20434;-68
2022/08/06 05:13:45;;;;;;;12.52;2.70;;;27.00;58.10;;;;;;6248780;22;20008;-75
2022/08/06 05:16:14;;;;;;;11.38;2.60;;;27.00;58.10;;;;;;6247329;22;20012;-66
2022/08/06 05:18:57;;;;;;;13.32;2.70;;;27.10;58.20;;;;;;6244006;23;20366;-66
2022/08/06 05:21:28;;;;;;;14.57;2.60;;;27.10;58.10;;;;;;6245213;22;20423;-75
2022/08/06 05:23:54;;;;;;;6.68;2.67;;;27.10;58.30;;;;;;6245773;22;20009;-67
2022/08/06 05:26:21;;;;;;;5.60;2.45;;;27.20;58.30;;;;;;6244399;22;20035;-65
2022/08/06 05:28:47;;;;;;;6.95;2.40;;;27.20;58.00;;;;;;6244874;22;20034;-67
2022/08/06 05:31:13;;;;;;;9.48;2.55;;;27.20;57.80;;;;;;6244897;23;20004;-66
2022/08/06 05:33:40;;;;;;;12.65;2.72;;;27.20;57.80;;;;;;6245494;22;19996;-70
2022/08/06 05:36:08;;;;;;;6.35;2.58;;;27.20;57.50;;;;;;6245924;22;20435;-67
2022/08/06 05:38:36;;;;;;;6.22;2.80;;;27.30;57.40;;;;;;6245368;22;20366;-67
2022/08/06 05:41:10;;;;;;;12.02;2.53;;;27.30;57.40;;;;;;6245360;22;20011;-67
2022/08/06 05:43:40;;;;;;;11.40;3.38;;;27.30;57.50;;;;;;6245998;22;20015;-66
2022/08/06 05:46:11;;;;;;;24.73;4.10;;;27.30;57.40;;;;;;6247269;22;20020;-66
2022/08/06 05:48:41;;;;;;;11.50;2.45;;;27.40;57.30;;;;;;6246976;22;20470;-67
2022/08/06 05:51:11;;;;;;;9.57;2.80;;;27.40;57.40;;;;;;6247400;22;20059;-67
2022/08/06 05:53:47;;;;;;;10.05;2.33;;;27.50;57.30;;;;;;6246873;22;20026;-66
2022/08/06 05:56:18;;;;;;;6.53;2.17;;;27.50;57.00;;;;;;6246789;22;20078;-66
2022/08/06 05:58:59;;;;;;;11.00;2.65;;;27.60;56.80;;;;;;6247041;22;20415;-68
2022/08/06 06:01:26;;;;;;;11.55;3.13;;;27.60;56.50;;;;;;6247385;22;20015;-69
2022/08/06 06:03:54;;;;;;;12.27;3.05;;;27.60;56.30;;;;;;6247166;22;20008;-67
2022/08/06 06:06:21;;;;;;;6.43;2.75;;;27.70;56.20;;;;;;6246692;22;20012;-67
2022/08/06 06:08:47;;;;;;;5.57;2.63;;;27.80;56.20;;;;;;6246861;22;20012;-66
2022/08/06 06:11:13;;;;;;;7.00;3.17;;;27.80;56.30;;;;;;6246709;23;20066;-67
2022/08/06 06:13:41;;;;;;;5.07;2.20;;;27.90;56.20;;;;;;6246930;22;19996;-67
2022/08/06 06:16:28;;;;;;;3.10;2.10;;;27.90;55.90;;;;;;6246735;22;20000;-66
2022/08/06 06:18:59;;;;;;;3.17;2.10;;;27.90;55.90;;;;;;6246989;22;20008;-73
2022/08/06 06:21:33;;;;;;;3.65;2.13;;;28.00;55.80;;;;;;6246876;22;20379;-72
2022/08/06 06:24:14;;;;;;;10.45;2.40;;;28.00;55.70;;;;;;6246560;23;20004;-67
2022/08/06 06:26:57;;;;;;;22.58;4.32;;;28.10;55.80;;;;;;6246564;23;20024;-67
2022/08/06 06:29:56;;;;;;;5.22;2.67;;;28.10;55.50;;;;;;6246323;22;20000;-74
2022/08/06 06:32:44;;;;;;;7.25;2.20;;;28.20;55.20;;;;;;6246868;22;20000;-68
2022/08/06 06:35:23;;;;;;;5.03;1.90;;;28.20;55.10;;;;;;6246586;22;20062;-66
2022/08/06 06:38:05;;;;;;;5.80;1.90;;;28.30;55.00;;;;;;6246623;22;20378;-67
2022/08/06 06:40:34;;;;;;;2.65;1.65;;;28.40;54.60;;;;;;6246541;23;20031;-66
2022/08/06 06:43:07;;;;;;;7.28;2.30;;;28.40;54.20;;;;;;6246661;23;20358;-66
2022/08/06 06:45:53;;;;;;;4.18;2.13;;;28.60;54.00;;;;;;6246466;22;20015;-67
2022/08/06 06:48:25;;;;;;;4.25;1.95;;;28.60;53.80;;;;;;6246673;22;20449;-66
2022/08/06 06:50:57;;;;;;;5.05;2.30;;;28.70;53.70;;;;;;6246324;22;20076;-67
2022/08/06 06:53:28;;;;;;;6.85;2.20;;;28.80;53.80;;;;;;6246532;22;20011;-68
2022/08/06 06:55:56;;;;;;;6.90;2.10;;;28.90;53.70;;;;;;6246348;22;20004;-75
2022/08/06 06:58:44;;;;;;;6.60;2.00;;;29.00;53.70;;;;;;6246321;22;20015;-66
2022/08/06 07:01:12;;;;;;;3.60;2.22;;;29.00;53.60;;;;;;6246690;22;20051;-72
2022/08/06 07:03:40;;;;;;;5.63;2.20;;;29.10;53.30;;;;;;6246144;22;20449;-74
2022/08/06 07:06:10;;;;;;;2.40;2.10;;;29.20;53.10;;;;;;6246329;22;20500;-66
2022/08/06 07:08:44;;;;;;;2.40;1.67;;;29.30;53.00;;;;;;6246102;22;20074;-66
2022/08/06 07:11:13;;;;;;;4.47;2.03;;;29.30;52.70;;;;;;6246263;22;20016;-66
2022/08/06 07:13:41;;;;;;;5.68;2.15;;;29.40;52.30;;;;;;6246141;22;20008;-66
2022/08/06 07:16:08;;;;;;;5.18;1.95;;;29.50;52.20;;;;;;6245985;22;20010;-67
2022/08/06 07:18:36;;;;;;;2.85;2.10;;;29.50;52.00;;;;;;6246198;22;19997;-67
2022/08/06 07:21:03;;;;;;;5.18;2.00;;;29.60;51.80;;;;;;6246304;22;20018;-68
2022/08/06 07:23:30;;;;;;;4.65;2.65;;;29.60;51.50;;;;;;6246200;22;20075;-66
2022/08/06 07:25:58;;;;;;;7.65;2.20;;;29.70;51.30;;;;;;6246344;22;20016;-67
2022/08/06 07:28:26;;;;;;;3.55;2.00;;;29.80;51.10;;;;;;6245791;22;20324;-75
2022/08/06 07:30:53;;;;;;;8.25;2.10;;;29.90;50.90;;;;;;6245723;22;20114;-66
2022/08/06 07:33:19;;;;;;;2.70;1.80;;;29.90;50.80;;;;;;6246514;22;20004;-67
2022/08/06 07:35:46;;;;;;;3.33;2.05;;;30.00;50.60;;;;;;6245946;22;20031;-66
2022/08/06 07:38:15;;;;;;;6.25;2.25;;;30.00;50.20;;;;;;6246294;22;20378;-66
2022/08/06 07:40:58;;;;;;;4.20;2.00;;;30.20;50.00;;;;;;6245751;22;20000;-67
2022/08/06 07:43:31;;;;;;;5.13;2.33;;;30.20;49.60;;;;;;6246271;22;20075;-67
2022/08/06 07:46:01;;;;;;;6.53;2.22;;;30.30;49.40;;;;;;6245954;22;20085;-68
2022/08/06 07:48:31;;;;;;;12.45;2.22;;;30.40;49.20;;;;;;6245825;22;20008;-67
2022/08/06 07:50:59;;;;;;;6.07;2.20;;;30.50;49.00;;;;;;6245855;22;20061;-66
2022/08/06 07:53:26;;;;;;;7.38;2.40;;;30.50;48.80;;;;;;6246066;22;20009;-74
2022/08/06 07:55:52;;;;;;;24.55;2.53;;;30.60;48.70;;;;;;6246035;22;20442;-75
2022/08/06 07:58:19;;;;;;;6.65;2.10;;;30.60;48.50;;;;;;6245960;22;20000;-66
2022/08/06 08:00:47;;;;;;;8.30;2.10;;;30.60;48.50;;;;;;6245651;22;20027;-67
2022/08/06 08:06:18;;;;;;;11.15;2.40;;;30.80;48.80;;;;;;6246081;23;20082;-75
2022/08/06 08:08:45;;;;;;;9.80;2.00;;;30.90;48.50;;;;;;6245751;22;19997;-73
2022/08/06 08:11:14;;;;;;;9.65;2.15;;;31.00;48.20;;;;;;6245676;22;20000;-72
2022/08/06 08:13:40;;;;;;;5.50;2.45;;;31.10;47.60;;;;;;6246200;22;20008;-71
2022/08/06 08:16:08;;;;;;;17.95;2.65;;;31.20;47.20;;;;;;6245667;22;20008;-70
2022/08/06 08:18:34;;;;;;;138.07;6.28;;;31.20;47.10;;;;;;6245841;22;20008;-67
2022/08/06 08:21:01;;;;;;;56.30;3.15;;;31.20;47.10;;;;;;6246065;22;20339;-67
2022/08/06 08:23:30;;;;;;;11.57;2.65;;;31.30;47.00;;;;;;6245444;22;20423;-67
2022/08/06 08:26:00;;;;;;;4.82;2.20;;;31.30;46.90;;;;;;6245952;22;20514;-66
2022/08/06 08:28:26;;;;;;;48.03;3.00;;;31.30;46.90;;;;;;6246208;23;20021;-67
2022/08/06 08:30:52;;;;;;;6.00;2.00;;;31.40;47.00;;;;;;6246095;22;20012;-66
2022/08/06 08:33:18;;;;;;;5.68;2.10;;;31.40;47.10;;;;;;6245746;22;20323;-66
2022/08/06 08:35:46;;;;;;;2.38;2.03;;;31.60;47.10;;;;;;6246189;22;20011;-66
2022/08/06 08:38:11;;;;;;;3.25;2.08;;;31.60;47.00;;;;;;6245829;22;20079;-67
2022/08/06 08:40:37;;;;;;;2.20;2.00;;;31.70;46.90;;;;;;6245750;23;20038;-66
2022/08/06 08:43:06;;;;;;;17.65;2.15;;;31.80;46.80;;;;;;6245630;22;20000;-66
2022/08/06 08:45:32;;;;;;;5.45;2.13;;;31.80;46.60;;;;;;6245645;22;20079;-67
2022/08/06 08:47:58;;;;;;;4.00;2.10;;;31.90;46.40;;;;;;6245613;22;20004;-67
2022/08/06 08:50:30;;;;;;;14.10;2.38;;;32.00;46.30;;;;;;6245957;22;20000;-67
2022/08/06 08:53:22;;;;;;;34.13;3.78;;;32.10;46.00;;;;;;6247777;23;20087;-67
2022/08/06 08:55:48;;;;;;;38.20;3.72;;;32.10;44.30;;;;;;6247658;22;20008;-67
2022/08/06 08:58:14;;;;;;;27.25;2.97;;;32.10;44.20;;;;;;6247540;22;20330;-67
2022/08/06 09:00:41;;;;;;;29.20;3.33;;;32.20;44.00;;;;;;6247658;22;20008;-67
2022/08/06 09:03:07;;;;;;;44.95;3.53;;;32.10;44.10;;;;;;6247443;22;20079;-67
2022/08/06 09:05:34;;;;;;;9.20;2.25;;;32.20;44.40;;;;;;6247403;22;20012;-67
2022/08/06 09:08:02;;;;;;;6.32;2.42;;;32.20;44.30;;;;;;6247456;22;20331;-67
2022/08/06 09:10:29;;;;;;;4.57;2.55;;;32.20;44.20;;;;;;6247374;22;20000;-67
2022/08/06 09:12:55;;;;;;;7.18;2.63;;;32.30;44.20;;;;;;6247429;22;20035;-66
2022/08/06 09:15:21;;;;;;;7.55;2.40;;;32.30;43.90;;;;;;6247469;23;20450;-66
2022/08/06 09:17:48;;;;;;;5.22;2.40;;;32.40;43.50;;;;;;6247348;22;20004;-67
2022/08/06 09:20:13;;;;;;;8.43;2.53;;;32.40;43.40;;;;;;6247431;22;20312;-67
2022/08/06 09:22:39;;;;;;;75.93;4.53;;;32.40;43.10;;;;;;6247447;22;20054;-67
2022/08/06 09:25:05;;;;;;;13.15;2.65;;;32.40;43.20;;;;;;6247266;23;20008;-66
2022/08/06 09:27:35;;;;;;;30.38;3.15;;;32.50;43.50;;;;;;6247109;22;20073;-67
2022/08/06 09:30:05;;;;;;;38.90;3.40;;;32.60;43.30;;;;;;6247671;22;20061;-66
2022/08/06 09:32:47;;;;;;;10.18;2.58;;;32.70;42.90;;;;;;6247338;22;19996;-67
2022/08/06 09:35:21;;;;;;;9.07;2.17;;;32.80;42.80;;;;;;6247501;22;20043;-71
2022/08/06 09:37:48;;;;;;;17.30;2.70;;;32.90;42.10;;;;;;6247527;22;20000;-70
2022/08/06 09:40:19;;;;;;;46.33;3.20;;;32.90;41.50;;;;;;6247210;22;20005;-67
2022/08/06 09:42:48;;;;;;;8.27;2.73;;;32.90;41.70;;;;;;6246985;22;20087;-66
2022/08/06 09:45:15;;;;;;;4.57;2.30;;;32.80;41.90;;;;;;6247117;22;20573;-67
2022/08/06 09:47:41;;;;;;;38.28;3.10;;;32.80;42.70;;;;;;6247177;22;20004;-67
2022/08/06 09:50:08;;;;;;;41.58;2.80;;;32.80;42.20;;;;;;6247450;22;20134;-67
2022/08/06 09:52:34;;;;;;;7.45;2.47;;;32.80;42.10;;;;;;6246933;22;20004;-66
2022/08/06 09:55:00;;;;;;;8.32;2.55;;;32.80;42.00;;;;;;6246938;23;20071;-66
2022/08/06 09:57:48;;;;;;;4.07;2.35;;;32.80;42.20;;;;;;6247012;22;20443;-66
2022/08/06 10:00:30;;;;;;;8.30;2.72;;;33.00;41.90;;;;;;6246389;23;20012;-67
2022/08/06 10:03:01;;;;;;;5.72;2.75;;;33.10;41.70;;;;;;6246552;22;20000;-73
2022/08/06 10:05:27;;;;;;;;;;;33.20;41.40;;;;;;6247402;22;20015;-66
2022/08/06 10:08:16;;;;;;;9.50;2.55;;;33.30;41.40;;;;;;6246660;22;19899;-67
2022/08/06 10:10:49;;;;;;;5.47;2.30;;;33.40;41.20;;;;;;6247065;22;20103;-66
2022/08/06 10:13:23;;;;;;;22.38;3.22;;;33.50;40.80;;;;;;6247284;22;20000;-66
2022/08/06 10:15:50;;;;;;;7.07;2.33;;;33.60;40.20;;;;;;6246812;22;20008;-67
2022/08/06 10:18:48;;;;;;;8.05;2.70;;;33.70;39.80;;;;;;6246949;22;20015;-66
2022/08/06 10:21:17;;;;;;;3.78;2.30;;;33.80;39.70;;;;;;6246495;22;20108;-75
2022/08/06 10:23:49;;;;;;;5.53;2.33;;;33.80;39.50;;;;;;6246987;22;20006;-67
2022/08/06 10:26:28;;;;;;;6.18;2.25;;;33.90;39.40;;;;;;6246566;22;20012;-67
2022/08/06 10:29:00;;;;;;;6.03;2.40;;;33.90;39.90;;;;;;6247356;22;20008;-74
2022/08/06 10:31:26;;;;;;;;;;;33.90;39.70;;;;;;6246895;22;20426;-67
2022/08/06 10:34:08;;;;;;;5.85;2.47;;;33.90;40.10;;;;;;6246650;22;20334;-67
2022/08/06 10:36:44;;;;;;;2.65;2.30;;;34.00;39.90;;;;;;6246720;22;19996;-67
2022/08/06 10:39:12;;;;;;;4.80;2.80;;;34.00;39.90;;;;;;6246540;22;20485;-67
2022/08/06 10:41:40;;;;;;;14.13;2.47;;;34.00;39.60;;;;;;6246596;22;20000;-67
2022/08/06 10:44:06;;;;;;;7.20;2.22;;;34.00;39.50;;;;;;6246585;22;20445;-67
2022/08/06 10:46:32;;;;;;;5.72;2.55;;;33.90;39.60;;;;;;6246286;22;20008;-67
2022/08/06 10:48:59;;;;;;;6.65;2.30;;;33.90;39.40;;;;;;6246584;22;20012;-67
2022/08/06 10:51:29;;;;;;;7.10;2.63;;;33.90;39.80;;;;;;6246485;22;20087;-67
2022/08/06 10:53:55;;;;;;;5.63;2.55;;;33.90;42.70;;;;;;6246373;22;20000;-67
2022/08/06 10:56:21;;;;;;;8.68;3.45;;;33.70;45.40;;;;;;6246432;22;20004;-67
2022/08/06 10:58:48;;;;;;;12.35;2.10;;;33.60;47.80;;;;;;6246404;22;20027;-66
2022/08/06 11:01:22;;;;;;;4.70;1.95;;;33.40;49.60;;;;;;6246639;22;20034;-67
2022/08/06 11:04:14;;;;;;;10.50;2.22;;;33.10;51.00;;;;;;6246539;23;20008;-67
2022/08/06 11:07:10;;;;;;;9.70;2.30;;;32.80;50.20;;;;;;6246048;23;20019;-67
2022/08/06 11:09:42;;;;;;;6.47;2.47;;;32.50;48.30;;;;;;6246366;23;20015;-67
2022/08/06 11:12:11;;;;;;;4.38;2.50;;;32.20;48.60;;;;;;6246211;23;20032;-67
2022/08/06 11:14:38;;;;;;;4.15;1.95;;;31.90;47.90;;;;;;6245946;23;20008;-67
2022/08/06 11:17:05;;;;;;;3.33;1.60;;;31.80;47.10;;;;;;6246192;22;20458;-67
2022/08/06 11:19:44;;;;;;;5.13;2.13;;;31.80;45.10;;;;;;6246199;22;20061;-67
2022/08/06 11:22:40;;;;;;;2.85;2.05;;;31.90;46.90;;;;;;6246136;22;20044;-67
2022/08/06 11:25:08;;;;;;;3.80;2.30;;;32.10;47.50;;;;;;6245893;23;20016;-74
2022/08/06 11:27:56;;;;;;;5.15;2.10;;;32.20;46.80;;;;;;6245963;22;20428;-71
2022/08/06 11:30:37;;;;;;;4.00;2.38;;;32.40;46.70;;;;;;6246308;22;20030;-67
2022/08/06 11:33:03;;;;;;;4.35;2.55;;;32.40;46.30;;;;;;6245719;22;20000;-71
2022/08/06 11:35:35;;;;;;;3.05;2.47;;;32.50;46.30;;;;;;6246222;22;20066;-74
2022/08/06 11:38:03;;;;;;;3.20;2.13;;;32.50;46.70;;;;;;6245892;23;20312;-67
2022/08/06 11:41:24;;;;;;;6.25;3.15;;;32.50;47.10;;;;;;6246019;22;20023;-67
2022/08/06 11:43:53;;;;;;;3.53;2.50;;;32.70;47.40;;;;;;6227742;22;20384;-74
2022/08/06 11:46:30;;;;;;;4.70;2.30;;;32.80;48.40;;;;;;6245084;23;20012;-67
2022/08/06 11:48:59;;;;;;;5.72;2.30;;;32.90;49.30;;;;;;6244308;23;20046;-67
2022/08/06 11:51:57;;;;;;;6.25;2.72;;;32.90;48.80;;;;;;6242055;23;20004;-67
2022/08/06 11:54:43;;;;;;;11.63;2.40;;;33.10;49.20;;;;;;6242264;22;20095;-66
2022/08/06 11:57:15;;;;;;;6.35;2.13;;;33.10;49.20;;;;;;6245107;23;20027;-67
2022/08/06 11:59:49;;;;;;;;;;;33.10;49.50;;;;;;6246609;23;20011;-66
2022/08/06 12:02:36;;;;;;;3.65;2.05;;;33.10;49.50;;;;;;6245445;23;19900;-73
2022/08/06 12:05:02;;;;;;;5.03;2.00;;;33.10;49.40;;;;;;6244701;23;20020;-73
2022/08/06 12:07:30;;;;;;;3.72;2.00;;;33.00;49.20;;;;;;6245733;22;20008;-69
2022/08/06 12:10:05;;;;;;;2.90;2.20;;;33.00;49.30;;;;;;6245785;22;20011;-73
2022/08/06 12:12:35;;;;;;;3.08;2.13;;;32.80;49.40;;;;;;6245097;23;20059;-68
2022/08/06 12:15:13;;;;;;;6.10;2.05;;;32.70;49.60;;;;;;6245020;22;20028;-66
2022/08/06 12:17:40;;;;;;;4.68;1.95;;;32.60;49.90;;;;;;6245043;23;20369;-69
2022/08/06 12:20:08;;;;;;;4.47;1.80;;;32.40;49.80;;;;;;6244908;22;20054;-67
2022/08/06 12:22:35;;;;;;;3.75;2.35;;;32.30;49.60;;;;;;6245386;22;20427;-67
2022/08/06 12:25:04;;;;;;;4.50;1.90;;;32.20;49.30;;;;;;6245090;22;20008;-66
2022/08/06 12:27:32;;;;;;;3.88;1.63;;;32.10;49.00;;;;;;6246472;22;20095;-67
2022/08/06 12:29:59;;;;;;;7.97;1.85;;;32.00;49.00;;;;;;6247192;22;20078;-71
2022/08/06 12:32:32;;;;;;;22.88;2.20;;;31.90;48.90;;;;;;6247191;22;20461;-70
2022/08/06 12:35:00;;;;;;;9.82;2.70;;;31.80;49.10;;;;;;6246765;22;20058;-71
2022/08/06 12:37:43;;;;;;;55.95;3.72;;;31.70;51.70;;;;;;6247033;22;19996;-67
2022/08/06 12:40:23;;;;;;;10.60;2.30;;;31.40;52.70;;;;;;6247443;22;20312;-68
2022/08/06 12:42:50;;;;;;;9.32;2.53;;;31.00;53.60;;;;;;6247405;22;20431;-71
2022/08/06 12:45:26;;;;;;;10.07;2.58;;;30.60;54.90;;;;;;6246235;22;20028;-68
2022/08/06 12:48:01;;;;;;;8.77;2.47;;;30.30;56.90;;;;;;6243949;22;20012;-69
2022/08/06 12:50:28;;;;;;;7.10;2.22;;;30.10;57.10;;;;;;6244241;23;20008;-66
2022/08/06 12:53:03;;;;;;;12.60;2.85;;;30.00;57.60;;;;;;6247136;22;20008;-67
2022/08/06 12:55:41;;;;;;;7.53;2.60;;;29.90;57.70;;;;;;6247196;22;20012;-65
2022/08/06 12:58:09;;;;;;;6.43;2.95;;;29.70;58.20;;;;;;6247582;22;20415;-67
2022/08/06 13:00:35;;;;;;;12.75;2.63;;;29.60;58.50;;;;;;6247046;22;20331;-80
2022/08/06 13:03:03;;;;;;;4.10;2.40;;;29.40;58.80;;;;;;6247205;22;20465;-75
2022/08/06 13:05:30;;;;;;;5.18;2.63;;;29.30;58.60;;;;;;6246719;22;20062;-68
2022/08/06 13:07:57;;;;;;;6.78;2.28;;;29.30;58.20;;;;;;6247399;22;20347;-67